Time;durP1;ratioP1;P1;durP2;ratioP2;P2;SDS_P1;SDS_P2;PMS_P1;PMS_P2;Temp;Humidity;BMP_temperature;BMP_pressure;BME280_temperature;BME280_humidity;BME280_pressure;Samples;Min_cycle;Max_cycle;Signal;HPM_P1;HPM_P2
2023/03/10 00:00:00;;;;;;;23.73;17.77;;;2.60;99.90;;;;;;4995001;28;20501;-67
2023/03/10 00:02:31;;;;;;;23.50;17.33;;;2.60;99.90;;;;;;4997762;28;20532;-67
2023/03/10 00:05:01;;;;;;;23.77;17.17;;;2.60;99.90;;;;;;5001414;28;20534;-67
2023/03/10 00:07:29;;;;;;;24.80;17.53;;;2.60;99.90;;;;;;4997986;28;20476;-67
2023/03/10 00:09:57;;;;;;;24.87;17.47;;;2.60;99.90;;;;;;4993916;28;20492;-67
2023/03/10 00:12:26;;;;;;;25.47;18.13;;;2.60;99.90;;;;;;5000056;28;20483;-67
2023/03/10 00:14:55;;;;;;;24.17;17.77;;;2.60;99.90;;;;;;4999693;28;20857;-67
2023/03/10 00:17:23;;;;;;;23.57;17.43;;;2.60;99.90;;;;;;4999491;28;20498;-67
2023/03/10 00:19:51;;;;;;;25.60;17.90;;;2.60;99.90;;;;;;5001497;28;20492;-67
2023/03/10 00:22:20;;;;;;;21.87;16.33;;;2.60;99.90;;;;;;4998567;28;20485;-67
2023/03/10 00:24:48;;;;;;;26.27;16.80;;;2.50;99.90;;;;;;5001520;28;20503;-67
2023/03/10 00:27:16;;;;;;;21.90;16.30;;;2.60;99.90;;;;;;5000750;28;20469;-67
2023/03/10 00:29:44;;;;;;;21.73;16.70;;;2.50;99.90;;;;;;4998744;28;20519;-66
2023/03/10 00:32:12;;;;;;;22.43;17.77;;;2.50;99.90;;;;;;4999397;28;21010;-67
2023/03/10 00:34:40;;;;;;;23.40;17.17;;;2.50;99.90;;;;;;4997906;28;20994;-67
2023/03/10 00:37:08;;;;;;;25.87;18.27;;;2.50;99.90;;;;;;4999920;28;20489;-67
2023/03/10 00:39:37;;;;;;;22.40;16.87;;;2.50;99.90;;;;;;4997520;28;20495;-66
2023/03/10 00:42:05;;;;;;;21.83;16.57;;;2.50;99.90;;;;;;4997709;28;20483;-66
2023/03/10 00:44:33;;;;;;;22.27;16.17;;;2.50;99.90;;;;;;4999729;28;20471;-67
2023/03/10 00:47:01;;;;;;;26.00;18.00;;;2.50;99.90;;;;;;5000491;28;20957;-67
2023/03/10 00:49:29;;;;;;;23.07;16.87;;;2.50;99.90;;;;;;4998556;28;20489;-67
2023/03/10 00:51:57;;;;;;;23.90;16.33;;;2.50;99.90;;;;;;4995474;28;20489;-67
2023/03/10 00:54:25;;;;;;;24.67;17.27;;;2.40;99.90;;;;;;4998275;28;20480;-67
2023/03/10 00:56:54;;;;;;;23.90;16.27;;;2.50;99.90;;;;;;4999584;28;20476;-67
2023/03/10 00:59:22;;;;;;;19.70;15.80;;;2.40;99.90;;;;;;4999759;28;20507;-67
2023/03/10 01:01:50;;;;;;;21.97;16.50;;;2.40;99.90;;;;;;4999215;28;20996;-67
2023/03/10 01:04:18;;;;;;;24.37;17.30;;;2.40;99.90;;;;;;4999426;28;20902;-67
2023/03/10 01:06:47;;;;;;;21.43;16.43;;;2.40;99.90;;;;;;4999215;28;20508;-67
2023/03/10 01:09:15;;;;;;;23.53;16.70;;;2.50;99.90;;;;;;4998299;28;20492;-67
2023/03/10 01:11:43;;;;;;;22.50;16.43;;;2.40;99.90;;;;;;4998105;28;20484;-66
2023/03/10 01:14:14;;;;;;;21.97;15.43;;;2.40;99.90;;;;;;4999279;28;20472;-66
2023/03/10 01:16:42;;;;;;;24.97;17.80;;;2.40;99.90;;;;;;4999610;28;20473;-66
2023/03/10 01:19:10;;;;;;;25.23;18.03;;;2.40;99.90;;;;;;5001000;28;20522;-66
2023/03/10 01:21:39;;;;;;;23.27;16.30;;;2.40;99.90;;;;;;4998447;28;20521;-66
2023/03/10 01:24:08;;;;;;;24.93;16.50;;;2.40;99.90;;;;;;4999165;28;20491;-67
2023/03/10 01:26:36;;;;;;;22.47;16.90;;;2.30;99.90;;;;;;4999779;28;20554;-66
2023/03/10 01:29:04;;;;;;;23.90;17.20;;;2.30;99.90;;;;;;5000118;28;20488;-66
2023/03/10 01:31:33;;;;;;;25.00;17.73;;;2.30;99.90;;;;;;4997612;28;20508;-68
2023/03/10 01:34:01;;;;;;;25.10;17.30;;;2.30;99.90;;;;;;5000036;28;20483;-66
2023/03/10 01:36:29;;;;;;;22.03;16.43;;;2.30;99.90;;;;;;5000427;28;20473;-66
2023/03/10 01:38:59;;;;;;;25.00;16.97;;;2.30;99.90;;;;;;4998335;28;20491;-66
2023/03/10 01:41:27;;;;;;;24.13;17.03;;;2.40;99.90;;;;;;4999545;28;20487;-66
2023/03/10 01:43:56;;;;;;;25.20;17.93;;;2.30;99.90;;;;;;5004100;28;20464;-66
2023/03/10 01:46:42;;;;;;;24.10;17.47;;;2.30;99.90;;;;;;5002124;28;20555;-66
2023/03/10 01:49:27;;;;;;;23.40;16.57;;;2.30;99.90;;;;;;5002945;28;20581;-66
2023/03/10 01:51:59;;;;;;;27.20;18.13;;;2.30;99.90;;;;;;5002705;28;20492;-66
2023/03/10 01:54:32;;;;;;;23.77;17.30;;;2.30;99.90;;;;;;5003285;28;20862;-66
2023/03/10 01:57:00;;;;;;;23.97;17.20;;;2.30;99.90;;;;;;5004177;28;20479;-66
2023/03/10 01:59:28;;;;;;;21.27;15.90;;;2.30;99.90;;;;;;4992722;28;20481;-66
2023/03/10 02:01:59;;;;;;;24.07;17.80;;;2.30;99.90;;;;;;5000635;28;20486;-66
2023/03/10 02:04:33;;;;;;;23.90;16.60;;;2.30;99.90;;;;;;5002603;28;20554;-66
2023/03/10 02:07:03;;;;;;;25.37;17.97;;;2.30;99.90;;;;;;5002753;28;20503;-66
2023/03/10 02:09:34;;;;;;;24.03;15.90;;;2.30;99.90;;;;;;5003313;28;20673;-66
2023/03/10 02:12:04;;;;;;;21.90;15.43;;;2.30;99.90;;;;;;5003224;28;20489;-66
2023/03/10 02:14:34;;;;;;;21.50;15.00;;;2.30;99.90;;;;;;5001936;28;20853;-66
2023/03/10 02:17:04;;;;;;;20.20;14.67;;;2.30;99.90;;;;;;5002604;28;20976;-66
2023/03/10 02:20:06;;;;;;;21.30;15.57;;;2.30;99.90;;;;;;5003474;28;20489;-67
2023/03/10 02:22:35;;;;;;;20.67;14.80;;;2.30;99.90;;;;;;4986555;28;20491;-67
2023/03/10 02:25:14;;;;;;;19.90;14.97;;;2.30;99.90;;;;;;5003808;28;20472;-66
2023/03/10 02:27:43;;;;;;;19.60;15.40;;;2.30;99.90;;;;;;5002970;28;20512;-66
2023/03/10 02:30:15;;;;;;;21.90;15.57;;;2.30;99.90;;;;;;5003056;28;20493;-66
2023/03/10 02:32:47;;;;;;;21.73;15.20;;;2.30;99.90;;;;;;5002990;28;21036;-66
2023/03/10 02:35:15;;;;;;;21.70;15.90;;;2.20;99.90;;;;;;5004070;28;21012;-66
2023/03/10 02:37:44;;;;;;;21.60;15.17;;;2.20;99.90;;;;;;5002303;28;20976;-66
2023/03/10 02:40:32;;;;;;;20.40;15.57;;;2.20;99.90;;;;;;5002454;28;20491;-66
2023/03/10 02:43:05;;;;;;;20.67;15.50;;;2.20;99.90;;;;;;5003269;28;20483;-66
2023/03/10 02:45:37;;;;;;;20.80;14.80;;;2.20;99.90;;;;;;5002563;28;20552;-66
2023/03/10 02:48:06;;;;;;;21.33;15.90;;;2.20;99.90;;;;;;5003119;28;20496;-66
2023/03/10 02:50:39;;;;;;;21.73;16.00;;;2.20;99.90;;;;;;5001241;28;20470;-66
2023/03/10 02:53:11;;;;;;;20.23;15.40;;;2.20;99.90;;;;;;4997097;28;20977;-67
2023/03/10 02:55:39;;;;;;;20.33;16.17;;;2.20;99.90;;;;;;5002881;28;20481;-66
2023/03/10 02:58:09;;;;;;;20.33;14.83;;;2.20;99.90;;;;;;5000502;28;20464;-66
2023/03/10 03:00:37;;;;;;;21.03;15.80;;;2.20;99.90;;;;;;5001829;28;20477;-66
2023/03/10 03:03:06;;;;;;;18.60;14.10;;;2.20;99.90;;;;;;5002094;28;21007;-67
2023/03/10 03:05:34;;;;;;;20.30;14.43;;;2.20;99.90;;;;;;5001753;28;20476;-67
2023/03/10 03:08:02;;;;;;;18.53;13.73;;;2.10;99.90;;;;;;5000804;28;20499;-66
2023/03/10 03:10:30;;;;;;;17.90;13.67;;;2.10;99.90;;;;;;5001601;28;20480;-66
2023/03/10 03:12:57;;;;;;;17.73;14.10;;;2.10;99.90;;;;;;5002498;28;20473;-66
2023/03/10 03:15:27;;;;;;;18.40;14.10;;;2.10;99.90;;;;;;5001971;28;20472;-66
2023/03/10 03:17:57;;;;;;;19.10;14.00;;;2.10;99.90;;;;;;5002483;28;20480;-66
2023/03/10 03:20:25;;;;;;;20.10;14.80;;;2.10;99.90;;;;;;5001043;28;20479;-67
2023/03/10 03:22:54;;;;;;;20.10;14.90;;;2.10;99.90;;;;;;5001626;28;20472;-66
2023/03/10 03:25:23;;;;;;;18.00;14.10;;;2.10;99.90;;;;;;4999048;28;20519;-67
2023/03/10 03:27:51;;;;;;;20.30;15.60;;;2.10;99.90;;;;;;5002570;28;20511;-66
2023/03/10 03:30:22;;;;;;;19.53;14.43;;;2.10;99.90;;;;;;5001542;28;20498;-66
2023/03/10 03:32:52;;;;;;;19.97;15.40;;;2.10;99.90;;;;;;4994008;28;20488;-66
2023/03/10 03:35:23;;;;;;;20.17;15.77;;;2.10;99.90;;;;;;5002160;28;20466;-66
2023/03/10 03:37:52;;;;;;;19.73;15.43;;;2.10;99.90;;;;;;5000656;28;20476;-66
2023/03/10 03:40:20;;;;;;;22.50;16.50;;;2.10;99.90;;;;;;5000309;28;20877;-66
2023/03/10 03:42:50;;;;;;;20.70;15.37;;;2.00;99.90;;;;;;5000147;28;20492;-66
2023/03/10 03:45:19;;;;;;;20.93;15.23;;;2.00;99.90;;;;;;5001683;28;20506;-66
2023/03/10 03:47:47;;;;;;;21.43;15.37;;;2.00;99.90;;;;;;5001135;28;20878;-68
2023/03/10 03:50:18;;;;;;;22.47;16.13;;;2.00;99.90;;;;;;4998149;28;20869;-68
2023/03/10 03:52:47;;;;;;;20.93;15.17;;;2.00;99.90;;;;;;5001497;28;20988;-68
2023/03/10 03:55:17;;;;;;;20.37;15.83;;;2.00;99.90;;;;;;5000507;28;20480;-67
2023/03/10 03:57:45;;;;;;;18.13;14.50;;;2.00;99.90;;;;;;4999755;28;20483;-66
2023/03/10 04:00:18;;;;;;;20.17;15.90;;;2.00;99.90;;;;;;5000461;28;20515;-67
2023/03/10 04:02:46;;;;;;;20.73;15.17;;;1.90;99.90;;;;;;4998403;28;20488;-67
2023/03/10 04:05:15;;;;;;;21.43;15.37;;;1.90;99.90;;;;;;5001486;28;20921;-67
2023/03/10 04:07:44;;;;;;;20.30;14.50;;;1.90;99.90;;;;;;5000848;28;20497;-67
2023/03/10 04:10:15;;;;;;;22.20;16.13;;;1.90;99.90;;;;;;4999058;28;20499;-67
2023/03/10 04:12:43;;;;;;;18.67;15.13;;;1.90;99.90;;;;;;5000404;28;20564;-67
2023/03/10 04:15:12;;;;;;;19.67;14.67;;;1.90;99.90;;;;;;4998424;28;20484;-66
2023/03/10 04:17:40;;;;;;;21.77;15.77;;;1.90;99.90;;;;;;5000863;28;20495;-67
2023/03/10 04:20:10;;;;;;;20.37;15.40;;;1.90;99.90;;;;;;4999801;28;20495;-67
2023/03/10 04:22:40;;;;;;;20.97;15.60;;;1.80;99.90;;;;;;4999998;28;20488;-67
2023/03/10 04:25:09;;;;;;;22.60;16.00;;;1.80;99.90;;;;;;5000187;28;21129;-68
2023/03/10 04:27:37;;;;;;;22.00;15.00;;;1.80;99.90;;;;;;5000494;28;20495;-67
2023/03/10 04:30:06;;;;;;;21.57;16.07;;;1.80;99.90;;;;;;5000967;28;20497;-68
2023/03/10 04:32:34;;;;;;;20.37;15.20;;;1.80;99.90;;;;;;5000380;28;21071;-67
2023/03/10 04:35:02;;;;;;;21.80;15.47;;;1.80;99.90;;;;;;4997159;28;20480;-67
2023/03/10 04:37:30;;;;;;;21.83;15.03;;;1.80;99.90;;;;;;5001416;28;20481;-66
2023/03/10 04:39:59;;;;;;;21.70;15.63;;;1.80;99.90;;;;;;5000227;28;20497;-67
2023/03/10 04:42:27;;;;;;;19.97;14.53;;;1.80;99.90;;;;;;5000314;28;20477;-66
2023/03/10 04:44:55;;;;;;;22.03;15.70;;;1.70;99.90;;;;;;4999868;28;20483;-68
2023/03/10 04:47:23;;;;;;;22.60;15.77;;;1.80;99.90;;;;;;5001004;28;21009;-67
2023/03/10 04:49:51;;;;;;;22.10;15.27;;;1.70;99.90;;;;;;5000570;28;20495;-67
2023/03/10 04:52:19;;;;;;;21.17;16.00;;;1.70;99.90;;;;;;5000503;28;20542;-67
2023/03/10 04:54:47;;;;;;;21.47;15.40;;;1.70;99.90;;;;;;4999584;28;20480;-67
2023/03/10 04:57:16;;;;;;;21.43;16.07;;;1.70;99.90;;;;;;4997080;28;20477;-67
2023/03/10 04:59:44;;;;;;;21.27;16.50;;;1.70;99.90;;;;;;5000020;28;20488;-68
2023/03/10 05:02:12;;;;;;;21.87;16.97;;;1.70;99.90;;;;;;4999261;28;21107;-66
2023/03/10 05:04:40;;;;;;;22.00;15.90;;;1.70;99.90;;;;;;4999684;28;20494;-68
2023/03/10 05:07:08;;;;;;;23.10;16.70;;;1.70;99.90;;;;;;5000929;28;20484;-68
2023/03/10 05:09:37;;;;;;;20.27;14.10;;;1.70;99.90;;;;;;4999425;28;20571;-68
2023/03/10 05:12:06;;;;;;;20.63;15.40;;;1.60;99.90;;;;;;4997562;28;21085;-67
2023/03/10 05:14:36;;;;;;;22.70;16.27;;;1.60;99.90;;;;;;4998792;28;20472;-67
2023/03/10 05:17:04;;;;;;;20.00;15.20;;;1.60;99.90;;;;;;4999567;28;20468;-66
2023/03/10 05:19:34;;;;;;;22.13;16.07;;;1.60;99.90;;;;;;5001076;28;20488;-66
2023/03/10 05:22:02;;;;;;;22.40;15.97;;;1.60;99.90;;;;;;4997045;28;20507;-66
2023/03/10 05:24:31;;;;;;;21.63;16.10;;;1.60;99.90;;;;;;4999644;28;20468;-67
2023/03/10 05:27:01;;;;;;;21.20;14.83;;;1.60;99.90;;;;;;4999521;28;20479;-67
2023/03/10 05:29:29;;;;;;;22.10;16.97;;;1.60;99.90;;;;;;5000799;28;20547;-67
2023/03/10 05:31:59;;;;;;;22.73;16.20;;;1.60;99.90;;;;;;4996716;28;20492;-67
2023/03/10 05:34:26;;;;;;;23.10;16.30;;;1.60;99.90;;;;;;5000360;28;20469;-67
2023/03/10 05:36:55;;;;;;;21.97;15.70;;;1.50;99.90;;;;;;4999694;28;20472;-67
2023/03/10 05:39:23;;;;;;;25.00;15.70;;;1.50;99.90;;;;;;4997493;28;20960;-67
2023/03/10 05:41:51;;;;;;;20.30;15.83;;;1.50;99.90;;;;;;4999045;28;20853;-66
2023/03/10 05:44:19;;;;;;;24.23;16.90;;;1.50;99.90;;;;;;4998429;28;20483;-66
2023/03/10 05:46:47;;;;;;;24.67;16.30;;;1.50;99.90;;;;;;5000948;28;20475;-66
2023/03/10 05:49:16;;;;;;;20.13;15.63;;;1.50;99.90;;;;;;4999065;28;20502;-66
2023/03/10 05:51:44;;;;;;;24.47;17.17;;;1.50;99.90;;;;;;5000283;28;20477;-67
2023/03/10 05:54:12;;;;;;;25.00;16.60;;;1.50;99.90;;;;;;4998451;28;20499;-67
2023/03/10 05:56:40;;;;;;;22.23;16.37;;;1.50;99.90;;;;;;4999959;28;20472;-68
2023/03/10 05:59:08;;;;;;;24.53;17.87;;;1.50;99.90;;;;;;4999053;28;20484;-67
2023/03/10 06:01:37;;;;;;;26.13;17.60;;;1.50;99.90;;;;;;4998970;28;20492;-68
2023/03/10 06:04:05;;;;;;;22.60;16.83;;;1.50;99.90;;;;;;4996715;28;20469;-68
2023/03/10 06:06:35;;;;;;;22.30;15.80;;;1.50;99.90;;;;;;4999114;28;20530;-68
2023/03/10 06:09:03;;;;;;;23.40;17.13;;;1.50;99.90;;;;;;4998901;28;21056;-67
2023/03/10 06:11:32;;;;;;;23.17;16.50;;;1.50;99.90;;;;;;4997373;28;20988;-68
2023/03/10 06:14:00;;;;;;;25.70;17.80;;;1.50;99.90;;;;;;4999017;28;20483;-67
2023/03/10 06:16:28;;;;;;;23.30;17.03;;;1.50;99.90;;;;;;5000057;28;20472;-67
2023/03/10 06:18:56;;;;;;;20.37;15.17;;;1.50;99.90;;;;;;5000249;28;20503;-67
2023/03/10 06:21:25;;;;;;;19.93;15.43;;;1.50;99.90;;;;;;4996391;28;20621;-67
2023/03/10 06:23:54;;;;;;;20.63;15.43;;;1.50;99.90;;;;;;4998611;28;20468;-67
2023/03/10 06:26:23;;;;;;;20.70;15.93;;;1.50;99.90;;;;;;4998860;28;20468;-67
2023/03/10 06:28:51;;;;;;;21.23;14.57;;;1.50;99.90;;;;;;5003504;28;20571;-68
2023/03/10 06:31:21;;;;;;;20.47;14.60;;;1.50;99.90;;;;;;5001550;28;20490;-66
2023/03/10 06:33:49;;;;;;;20.80;16.00;;;1.50;99.90;;;;;;5004150;28;21466;-67
2023/03/10 06:36:17;;;;;;;18.40;13.17;;;1.50;99.90;;;;;;5000776;28;20479;-67
2023/03/10 06:38:46;;;;;;;20.43;14.80;;;1.50;99.90;;;;;;5002119;28;20567;-67
2023/03/10 06:41:16;;;;;;;22.23;15.70;;;1.50;99.90;;;;;;5000426;28;20493;-68
2023/03/10 06:43:44;;;;;;;20.70;14.53;;;1.50;99.90;;;;;;5003033;28;20498;-67
2023/03/10 06:46:13;;;;;;;20.13;14.20;;;1.50;99.90;;;;;;4999372;28;20471;-68
2023/03/10 06:48:42;;;;;;;19.80;14.90;;;1.50;99.90;;;;;;5003301;28;20524;-66
2023/03/10 06:51:13;;;;;;;20.80;14.70;;;1.50;99.90;;;;;;5001281;28;20483;-67
2023/03/10 06:53:41;;;;;;;20.57;15.23;;;1.50;99.90;;;;;;5003257;28;20479;-68
2023/03/10 06:56:12;;;;;;;19.70;14.70;;;1.50;99.90;;;;;;5001996;28;20468;-67
2023/03/10 06:58:42;;;;;;;18.97;15.00;;;1.60;99.90;;;;;;5001944;28;20493;-67
2023/03/10 07:01:21;;;;;;;19.37;13.97;;;1.60;99.90;;;;;;5001659;28;20481;-67
2023/03/10 07:03:49;;;;;;;18.00;14.33;;;1.60;99.90;;;;;;5003342;28;20471;-67
2023/03/10 07:06:17;;;;;;;18.10;13.90;;;1.60;99.90;;;;;;4999470;28;20472;-67
2023/03/10 07:08:45;;;;;;;19.57;14.67;;;1.60;99.90;;;;;;5002471;28;20507;-67
2023/03/10 07:11:15;;;;;;;18.70;14.67;;;1.60;99.90;;;;;;4998971;28;21040;-68
2023/03/10 07:13:44;;;;;;;18.70;14.33;;;1.60;99.90;;;;;;5003033;28;20483;-67
2023/03/10 07:16:12;;;;;;;20.07;15.53;;;1.60;99.90;;;;;;4993430;28;20480;-67
2023/03/10 07:18:40;;;;;;;20.50;15.23;;;1.70;99.90;;;;;;5003308;28;20547;-67
2023/03/10 07:21:09;;;;;;;19.20;15.17;;;1.70;99.90;;;;;;4999963;28;20489;-67
2023/03/10 07:23:37;;;;;;;19.30;13.73;;;1.70;99.90;;;;;;4999900;28;20480;-67
2023/03/10 07:26:07;;;;;;;20.00;15.03;;;1.70;99.90;;;;;;5001451;28;20980;-67
2023/03/10 07:28:36;;;;;;;20.33;15.47;;;1.70;99.90;;;;;;5002583;28;20575;-67
2023/03/10 07:31:06;;;;;;;19.90;14.50;;;1.70;99.90;;;;;;5000700;28;20852;-67
2023/03/10 07:33:34;;;;;;;18.20;14.00;;;1.80;99.90;;;;;;5001508;28;20484;-67
2023/03/10 07:36:05;;;;;;;18.97;14.60;;;1.80;99.90;;;;;;5002866;28;20556;-67
2023/03/10 07:38:33;;;;;;;18.27;14.40;;;1.80;99.90;;;;;;5001519;28;20497;-66
2023/03/10 07:41:01;;;;;;;21.07;15.10;;;1.80;99.90;;;;;;4996717;28;20480;-67
2023/03/10 07:43:30;;;;;;;18.50;14.20;;;1.80;99.90;;;;;;5000740;28;20472;-66
2023/03/10 07:45:58;;;;;;;16.63;13.80;;;1.80;99.90;;;;;;4996297;28;20471;-68
2023/03/10 07:48:27;;;;;;;19.93;14.13;;;1.70;99.90;;;;;;5000999;28;21500;-67
2023/03/10 07:50:56;;;;;;;20.17;14.20;;;1.70;99.90;;;;;;5002125;28;20500;-67
2023/03/10 07:53:24;;;;;;;18.07;14.30;;;1.80;99.90;;;;;;4998647;28;20471;-67
2023/03/10 07:55:52;;;;;;;20.13;14.70;;;1.80;99.90;;;;;;5002034;28;20555;-67
2023/03/10 07:58:21;;;;;;;18.37;14.07;;;1.80;99.90;;;;;;5000634;28;20492;-67
2023/03/10 08:00:54;;;;;;;19.43;14.60;;;1.80;99.90;;;;;;5000914;28;20497;-66
2023/03/10 08:03:22;;;;;;;17.23;13.33;;;1.80;99.90;;;;;;5002053;28;20491;-66
2023/03/10 08:05:51;;;;;;;19.77;15.17;;;1.80;99.90;;;;;;4994200;28;20480;-67
2023/03/10 08:08:20;;;;;;;16.63;13.73;;;1.80;99.90;;;;;;4996296;28;20499;-66
2023/03/10 08:10:48;;;;;;;17.27;14.40;;;1.80;99.90;;;;;;4998751;28;20476;-67
2023/03/10 08:13:16;;;;;;;19.23;14.53;;;1.90;99.90;;;;;;4993765;28;20476;-67
2023/03/10 08:15:44;;;;;;;21.60;15.73;;;1.90;99.90;;;;;;5001307;28;20473;-68
2023/03/10 08:18:12;;;;;;;19.37;14.47;;;1.90;99.90;;;;;;4999302;28;21029;-66
2023/03/10 08:20:40;;;;;;;16.30;13.60;;;1.90;99.90;;;;;;4999732;28;20468;-67
2023/03/10 08:23:09;;;;;;;19.77;14.70;;;1.90;99.90;;;;;;5000348;28;20848;-67
2023/03/10 08:25:38;;;;;;;17.93;13.30;;;1.90;99.90;;;;;;4999844;28;20474;-66
2023/03/10 08:28:05;;;;;;;18.43;15.20;;;1.90;99.90;;;;;;4999671;28;21128;-67
2023/03/10 08:30:33;;;;;;;18.80;14.60;;;1.90;99.90;;;;;;4996879;28;20500;-66
2023/03/10 08:33:02;;;;;;;18.80;14.27;;;1.90;99.90;;;;;;5000473;28;21006;-67
2023/03/10 08:35:30;;;;;;;18.17;13.53;;;1.90;99.90;;;;;;4999778;28;20562;-66
2023/03/10 08:37:58;;;;;;;21.10;15.60;;;2.00;99.90;;;;;;4997328;28;20480;-68
2023/03/10 08:40:28;;;;;;;19.77;14.10;;;2.00;99.90;;;;;;4995580;28;20473;-66
2023/03/10 08:42:56;;;;;;;17.90;13.83;;;2.00;99.90;;;;;;5001308;28;20483;-68
2023/03/10 08:45:24;;;;;;;19.10;14.57;;;2.00;99.90;;;;;;4999069;28;20476;-66
2023/03/10 08:47:52;;;;;;;20.33;15.80;;;2.00;99.90;;;;;;4998249;28;20477;-67
2023/03/10 08:50:20;;;;;;;20.00;15.07;;;2.00;99.90;;;;;;4998906;28;20491;-67
2023/03/10 08:52:48;;;;;;;21.20;14.90;;;2.00;99.90;;;;;;4999818;28;20967;-66
2023/03/10 08:55:16;;;;;;;17.03;13.83;;;2.10;99.90;;;;;;4997134;28;20473;-66
2023/03/10 08:57:45;;;;;;;21.17;15.53;;;2.10;99.90;;;;;;4999637;28;20476;-66
2023/03/10 09:00:14;;;;;;;20.53;15.47;;;2.10;99.90;;;;;;4997127;28;20491;-66
2023/03/10 09:02:44;;;;;;;19.33;14.90;;;2.10;99.90;;;;;;4998459;28;20481;-67
2023/03/10 09:05:12;;;;;;;17.37;14.50;;;2.10;99.90;;;;;;4998512;28;20500;-67
2023/03/10 09:07:40;;;;;;;20.30;14.87;;;2.10;99.90;;;;;;4998123;28;20477;-66
2023/03/10 09:10:08;;;;;;;22.40;16.10;;;2.10;99.90;;;;;;4998703;28;21020;-67
2023/03/10 09:12:36;;;;;;;20.73;15.03;;;2.10;99.90;;;;;;4998831;28;20492;-67
2023/03/10 09:15:09;;;;;;;19.77;15.03;;;2.20;99.90;;;;;;4998640;28;20973;-67
2023/03/10 09:17:39;;;;;;;19.20;15.23;;;2.20;99.90;;;;;;4998380;28;20476;-67
2023/03/10 09:20:09;;;;;;;20.80;15.00;;;2.20;99.90;;;;;;4999753;28;20492;-66
2023/03/10 09:22:37;;;;;;;21.47;14.90;;;2.20;99.90;;;;;;4997307;28;20502;-66
2023/03/10 09:25:06;;;;;;;19.07;15.27;;;2.20;99.90;;;;;;4998134;28;20472;-66
2023/03/10 09:27:34;;;;;;;21.97;16.03;;;2.20;99.90;;;;;;4999777;28;20899;-67
2023/03/10 09:30:02;;;;;;;22.53;14.77;;;2.20;99.90;;;;;;4997626;28;20496;-67
2023/03/10 09:32:31;;;;;;;21.13;16.13;;;2.20;99.90;;;;;;4997029;28;20484;-67
2023/03/10 09:34:59;;;;;;;22.40;14.57;;;2.20;99.90;;;;;;4999022;28;20565;-67
2023/03/10 09:37:27;;;;;;;20.43;15.13;;;2.20;99.90;;;;;;4999316;28;20469;-66
2023/03/10 09:39:55;;;;;;;19.70;15.13;;;2.20;99.90;;;;;;4997338;28;21039;-66
2023/03/10 09:42:36;;;;;;;21.03;15.47;;;2.20;99.90;;;;;;4998607;28;20496;-66
2023/03/10 09:45:21;;;;;;;22.27;15.33;;;2.20;99.90;;;;;;4998341;28;20469;-66
2023/03/10 09:48:08;;;;;;;21.90;15.87;;;2.20;99.90;;;;;;4997994;28;20472;-66
2023/03/10 09:50:40;;;;;;;19.50;14.50;;;2.20;99.90;;;;;;4999723;28;20498;-65
2023/03/10 09:53:33;;;;;;;22.47;15.37;;;2.20;99.90;;;;;;4998670;28;20491;-66
2023/03/10 09:56:03;;;;;;;21.60;15.33;;;2.20;99.90;;;;;;4997467;28;20563;-66
2023/03/10 09:58:34;;;;;;;20.70;14.60;;;2.20;99.90;;;;;;4998089;28;20502;-66
2023/03/10 10:01:05;;;;;;;21.70;15.70;;;2.30;99.90;;;;;;4997517;28;20864;-66
2023/03/10 10:03:41;;;;;;;19.80;15.67;;;2.20;99.90;;;;;;5000911;28;20476;-67
2023/03/10 10:06:24;;;;;;;20.97;14.97;;;2.20;99.90;;;;;;5005549;28;20484;-66
2023/03/10 10:08:58;;;;;;;20.60;14.73;;;2.20;99.90;;;;;;5003754;28;20496;-68
2023/03/10 10:11:33;;;;;;;20.03;14.90;;;2.20;99.90;;;;;;5001941;28;20770;-66
2023/03/10 10:14:14;;;;;;;19.90;15.00;;;2.20;99.90;;;;;;5002535;28;20463;-67
2023/03/10 10:16:58;;;;;;;23.10;16.90;;;2.20;99.90;;;;;;5002005;28;20481;-66
2023/03/10 10:19:28;;;;;;;22.13;16.00;;;2.20;99.90;;;;;;5002411;28;20496;-66
2023/03/10 10:22:01;;;;;;;22.67;16.60;;;2.20;99.90;;;;;;5002479;28;20476;-65
2023/03/10 10:24:30;;;;;;;25.10;17.27;;;2.20;99.90;;;;;;5001849;28;20887;-67
2023/03/10 10:26:58;;;;;;;28.90;17.83;;;2.20;99.90;;;;;;5003141;28;20473;-66
2023/03/10 10:29:29;;;;;;;23.57;16.70;;;2.20;99.90;;;;;;5001862;28;20496;-66
2023/03/10 10:32:07;;;;;;;23.83;16.80;;;2.10;99.90;;;;;;4999715;28;20513;-67
2023/03/10 10:34:38;;;;;;;24.03;17.20;;;2.10;99.90;;;;;;5001865;28;20495;-66
2023/03/10 10:37:24;;;;;;;26.00;18.20;;;2.10;99.90;;;;;;5002187;28;20472;-67
2023/03/10 10:39:54;;;;;;;26.20;17.97;;;2.10;99.90;;;;;;5003439;28;20492;-66
2023/03/10 10:42:24;;;;;;;22.63;16.30;;;2.20;99.90;;;;;;5000921;28;20488;-67
2023/03/10 10:44:54;;;;;;;26.20;17.50;;;2.20;99.90;;;;;;5002787;28;20849;-66
2023/03/10 10:47:28;;;;;;;28.80;17.40;;;2.20;99.90;;;;;;5002159;28;20472;-66
2023/03/10 10:50:11;;;;;;;24.23;17.93;;;2.20;99.90;;;;;;5003616;28;20495;-66
2023/03/10 10:52:40;;;;;;;27.63;18.50;;;2.20;99.90;;;;;;4995588;28;20579;-66
2023/03/10 10:55:26;;;;;;;27.03;18.90;;;2.20;99.90;;;;;;5002437;28;20511;-66
2023/03/10 10:57:56;;;;;;;23.73;17.23;;;2.20;99.90;;;;;;4999813;28;20813;-65
2023/03/10 11:00:29;;;;;;;26.83;18.47;;;2.20;99.90;;;;;;5000997;28;20476;-65
2023/03/10 11:02:58;;;;;;;26.00;18.27;;;2.20;99.90;;;;;;5002182;28;20498;-66
2023/03/10 11:05:33;;;;;;;27.40;18.93;;;2.30;99.90;;;;;;5002504;28;20472;-66
2023/03/10 11:08:18;;;;;;;26.80;17.83;;;2.30;99.90;;;;;;5001379;28;20557;-66
2023/03/10 11:10:51;;;;;;;23.13;17.10;;;2.30;99.90;;;;;;5001018;28;20479;-66
2023/03/10 11:13:23;;;;;;;24.20;18.00;;;2.30;99.90;;;;;;5001727;28;20851;-66
2023/03/10 11:15:58;;;;;;;25.70;17.90;;;2.30;99.90;;;;;;4999136;28;21186;-66
2023/03/10 11:18:31;;;;;;;23.80;17.73;;;2.30;99.90;;;;;;5002807;28;20499;-66
2023/03/10 11:21:06;;;;;;;25.43;17.57;;;2.30;99.90;;;;;;5001131;28;20473;-66
2023/03/10 11:23:40;;;;;;;24.97;17.73;;;2.30;99.90;;;;;;5001157;28;20480;-66
2023/03/10 11:26:19;;;;;;;26.40;19.87;;;2.30;99.90;;;;;;5001901;28;21183;-67
2023/03/10 11:28:52;;;;;;;24.70;19.00;;;2.30;99.90;;;;;;5000657;28;21563;-66
2023/03/10 11:31:33;;;;;;;26.43;19.30;;;2.30;99.90;;;;;;4998942;28;20488;-66
2023/03/10 11:34:18;;;;;;;26.17;18.43;;;2.30;99.90;;;;;;5002194;28;20473;-66
2023/03/10 11:36:54;;;;;;;21.40;16.80;;;2.30;99.90;;;;;;5001694;28;20471;-66
2023/03/10 11:39:33;;;;;;;25.30;18.87;;;2.30;99.90;;;;;;5001210;28;20495;-66
2023/03/10 11:42:06;;;;;;;23.27;17.10;;;2.30;99.90;;;;;;5000188;28;20473;-66
2023/03/10 11:44:39;;;;;;;24.50;18.57;;;2.30;99.90;;;;;;4997418;28;20484;-67
2023/03/10 11:47:14;;;;;;;25.27;18.40;;;2.30;99.90;;;;;;5002387;28;20471;-66
2023/03/10 11:49:46;;;;;;;26.13;19.77;;;2.30;99.90;;;;;;5003275;28;20488;-67
2023/03/10 11:52:18;;;;;;;24.00;17.63;;;2.40;99.90;;;;;;4998639;28;20484;-67
2023/03/10 11:54:50;;;;;;;25.33;18.40;;;2.40;99.90;;;;;;5002083;28;20568;-67
2023/03/10 11:57:19;;;;;;;26.83;18.20;;;2.40;99.90;;;;;;5000424;28;21412;-66
2023/03/10 11:59:53;;;;;;;26.17;19.13;;;2.40;99.90;;;;;;5000884;28;20557;-68
2023/03/10 12:02:24;;;;;;;26.53;19.10;;;2.40;99.90;;;;;;4999693;28;20480;-66
2023/03/10 12:04:59;;;;;;;22.33;16.83;;;2.40;99.90;;;;;;5001038;28;20487;-66
2023/03/10 12:07:33;;;;;;;27.77;18.43;;;2.30;99.90;;;;;;5003215;28;20468;-66
2023/03/10 12:10:04;;;;;;;24.43;17.63;;;2.40;99.90;;;;;;5006931;28;20500;-66
2023/03/10 12:12:35;;;;;;;23.80;17.10;;;2.40;99.90;;;;;;4999038;28;20620;-67
2023/03/10 12:15:07;;;;;;;22.50;17.37;;;2.40;99.90;;;;;;4998470;28;20500;-66
2023/03/10 12:17:35;;;;;;;26.27;19.60;;;2.40;99.90;;;;;;5001365;28;20475;-66
2023/03/10 12:20:10;;;;;;;23.47;17.87;;;2.40;99.90;;;;;;5000956;28;20488;-66
2023/03/10 12:22:41;;;;;;;24.40;17.47;;;2.40;99.90;;;;;;5000211;28;20472;-66
2023/03/10 12:25:43;;;;;;;25.50;18.43;;;2.50;99.90;;;;;;4999201;28;20468;-68
2023/03/10 12:28:19;;;;;;;20.80;15.53;;;2.50;99.90;;;;;;5000036;28;20483;-66
2023/03/10 12:30:50;;;;;;;25.40;18.20;;;2.60;99.90;;;;;;5000013;28;20483;-67
2023/03/10 12:33:54;;;;;;;20.10;16.50;;;2.60;99.90;;;;;;4999658;28;20991;-67
2023/03/10 12:36:34;;;;;;;22.67;17.20;;;2.60;99.90;;;;;;4999081;28;20878;-66
2023/03/10 12:39:30;;;;;;;22.13;17.57;;;2.60;99.90;;;;;;4999984;28;20487;-67
2023/03/10 12:41:58;;;;;;;20.93;15.93;;;2.60;99.90;;;;;;4998263;28;20499;-67
2023/03/10 12:44:34;;;;;;;22.80;16.73;;;2.60;99.90;;;;;;4998182;28;21320;-67
2023/03/10 12:47:18;;;;;;;23.03;17.40;;;2.60;99.90;;;;;;4999692;28;21216;-66
2023/03/10 12:49:50;;;;;;;21.13;16.50;;;2.60;99.90;;;;;;5000721;28;20498;-66
2023/03/10 12:52:26;;;;;;;20.67;17.00;;;2.70;99.90;;;;;;4999185;28;21012;-67